sensor_id;sensor_type;location;lat;lon;timestamp;P1;durP1;ratioP1;P2;durP2;ratioP2
67749;SDS011;54550;48.838;8.828;2023-06-10T00:18:02;4.13;;;3.30;;
67749;SDS011;54550;48.838;8.828;2023-06-10T00:22:55;4.30;;;3.00;;
67749;SDS011;54550;48.838;8.828;2023-06-10T00:25:22;3.80;;;2.93;;
67749;SDS011;54550;48.838;8.828;2023-06-10T00:27:47;3.80;;;2.87;;
67749;SDS011;54550;48.838;8.828;2023-06-10T00:39:57;4.47;;;3.27;;
67749;SDS011;54550;48.838;8.828;2023-06-10T00:42:22;5.17;;;3.07;;
67749;SDS011;54550;48.838;8.828;2023-06-10T00:44:49;5.93;;;3.40;;
67749;SDS011;54550;48.838;8.828;2023-06-10T00:47:15;6.57;;;4.23;;
67749;SDS011;54550;48.838;8.828;2023-06-10T00:49:41;2.77;;;2.57;;
67749;SDS011;54550;48.838;8.828;2023-06-10T00:52:09;4.07;;;3.33;;
67749;SDS011;54550;48.838;8.828;2023-06-10T00:54:36;4.90;;;3.30;;
67749;SDS011;54550;48.838;8.828;2023-06-10T00:57:03;5.93;;;3.50;;
67749;SDS011;54550;48.838;8.828;2023-06-10T00:59:30;3.43;;;3.10;;
67749;SDS011;54550;48.838;8.828;2023-06-10T01:01:57;10.87;;;4.53;;
67749;SDS011;54550;48.838;8.828;2023-06-10T01:04:22;3.33;;;2.80;;
67749;SDS011;54550;48.838;8.828;2023-06-10T01:09:21;3.90;;;3.37;;
67749;SDS011;54550;48.838;8.828;2023-06-10T01:14:39;3.53;;;3.03;;
67749;SDS011;54550;48.838;8.828;2023-06-10T01:17:09;5.30;;;3.60;;
67749;SDS011;54550;48.838;8.828;2023-06-10T01:19:36;6.73;;;3.57;;
67749;SDS011;54550;48.838;8.828;2023-06-10T01:22:02;5.40;;;4.00;;
67749;SDS011;54550;48.838;8.828;2023-06-10T01:24:29;4.10;;;3.17;;
67749;SDS011;54550;48.838;8.828;2023-06-10T01:26:59;5.90;;;3.87;;
67749;SDS011;54550;48.838;8.828;2023-06-10T01:29:40;5.77;;;3.50;;
67749;SDS011;54550;48.838;8.828;2023-06-10T01:32:18;5.53;;;4.60;;
67749;SDS011;54550;48.838;8.828;2023-06-10T01:34:54;4.33;;;3.73;;
67749;SDS011;54550;48.838;8.828;2023-06-10T01:37:20;3.87;;;3.53;;
67749;SDS011;54550;48.838;8.828;2023-06-10T01:39:49;5.33;;;4.20;;
67749;SDS011;54550;48.838;8.828;2023-06-10T01:42:17;3.70;;;3.40;;
67749;SDS011;54550;48.838;8.828;2023-06-10T01:44:43;3.20;;;2.90;;
67749;SDS011;54550;48.838;8.828;2023-06-10T01:47:09;3.60;;;3.23;;
67749;SDS011;54550;48.838;8.828;2023-06-10T01:49:34;5.77;;;3.70;;
67749;SDS011;54550;48.838;8.828;2023-06-10T01:52:00;6.20;;;4.43;;
67749;SDS011;54550;48.838;8.828;2023-06-10T01:54:25;4.77;;;4.00;;
67749;SDS011;54550;48.838;8.828;2023-06-10T01:56:51;6.73;;;4.33;;
67749;SDS011;54550;48.838;8.828;2023-06-10T02:11:26;3.70;;;3.03;;
67749;SDS011;54550;48.838;8.828;2023-06-10T02:13:51;5.40;;;3.67;;
67749;SDS011;54550;48.838;8.828;2023-06-10T02:16:17;7.10;;;5.30;;
67749;SDS011;54550;48.838;8.828;2023-06-10T02:18:43;4.57;;;3.83;;
67749;SDS011;54550;48.838;8.828;2023-06-10T02:21:09;5.37;;;4.53;;
67749;SDS011;54550;48.838;8.828;2023-06-10T02:23:35;4.90;;;4.07;;
67749;SDS011;54550;48.838;8.828;2023-06-10T02:26:01;9.03;;;5.17;;
67749;SDS011;54550;48.838;8.828;2023-06-10T02:28:27;6.57;;;4.50;;
67749;SDS011;54550;48.838;8.828;2023-06-10T02:30:52;8.10;;;4.93;;
67749;SDS011;54550;48.838;8.828;2023-06-10T02:33:18;5.43;;;4.73;;
67749;SDS011;54550;48.838;8.828;2023-06-10T02:35:44;4.90;;;3.70;;
67749;SDS011;54550;48.838;8.828;2023-06-10T02:38:10;5.77;;;4.70;;
67749;SDS011;54550;48.838;8.828;2023-06-10T02:40:36;9.10;;;4.40;;
67749;SDS011;54550;48.838;8.828;2023-06-10T02:43:01;3.90;;;3.27;;
67749;SDS011;54550;48.838;8.828;2023-06-10T02:45:27;5.23;;;3.57;;
67749;SDS011;54550;48.838;8.828;2023-06-10T02:47:52;8.50;;;4.80;;
67749;SDS011;54550;48.838;8.828;2023-06-10T02:50:18;5.10;;;3.00;;
67749;SDS011;54550;48.838;8.828;2023-06-10T02:52:44;8.80;;;4.00;;
67749;SDS011;54550;48.838;8.828;2023-06-10T02:55:09;4.43;;;3.50;;
67749;SDS011;54550;48.838;8.828;2023-06-10T02:57:35;6.50;;;4.23;;
67749;SDS011;54550;48.838;8.828;2023-06-10T03:00:01;7.50;;;4.10;;
67749;SDS011;54550;48.838;8.828;2023-06-10T03:02:29;6.10;;;4.20;;
67749;SDS011;54550;48.838;8.828;2023-06-10T03:04:56;4.63;;;3.97;;
67749;SDS011;54550;48.838;8.828;2023-06-10T03:07:22;5.60;;;4.30;;
67749;SDS011;54550;48.838;8.828;2023-06-10T03:09:48;6.43;;;4.90;;
67749;SDS011;54550;48.838;8.828;2023-06-10T03:12:15;5.50;;;4.27;;
67749;SDS011;54550;48.838;8.828;2023-06-10T03:14:41;6.83;;;3.83;;
67749;SDS011;54550;48.838;8.828;2023-06-10T03:17:06;6.37;;;4.13;;
67749;SDS011;54550;48.838;8.828;2023-06-10T03:19:33;6.97;;;3.87;;
67749;SDS011;54550;48.838;8.828;2023-06-10T03:22:09;4.90;;;4.27;;
67749;SDS011;54550;48.838;8.828;2023-06-10T03:24:36;5.70;;;4.60;;
67749;SDS011;54550;48.838;8.828;2023-06-10T03:27:05;5.90;;;3.90;;
67749;SDS011;54550;48.838;8.828;2023-06-10T03:29:38;5.67;;;4.30;;
67749;SDS011;54550;48.838;8.828;2023-06-10T03:32:04;4.63;;;3.80;;
67749;SDS011;54550;48.838;8.828;2023-06-10T03:34:30;4.03;;;3.63;;
67749;SDS011;54550;48.838;8.828;2023-06-10T03:36:56;4.97;;;3.93;;
67749;SDS011;54550;48.838;8.828;2023-06-10T03:39:22;3.60;;;3.27;;
67749;SDS011;54550;48.838;8.828;2023-06-10T03:41:48;5.10;;;3.63;;
67749;SDS011;54550;48.838;8.828;2023-06-10T03:44:16;6.00;;;4.10;;
67749;SDS011;54550;48.838;8.828;2023-06-10T03:46:42;4.03;;;3.57;;
67749;SDS011;54550;48.838;8.828;2023-06-10T03:49:07;5.50;;;3.30;;
67749;SDS011;54550;48.838;8.828;2023-06-10T03:51:34;16.93;;;4.10;;
67749;SDS011;54550;48.838;8.828;2023-06-10T03:54:00;4.07;;;3.10;;
67749;SDS011;54550;48.838;8.828;2023-06-10T03:56:26;4.03;;;2.87;;
67749;SDS011;54550;48.838;8.828;2023-06-10T03:58:51;3.37;;;3.07;;
67749;SDS011;54550;48.838;8.828;2023-06-10T04:01:17;4.60;;;3.50;;
67749;SDS011;54550;48.838;8.828;2023-06-10T04:03:46;3.37;;;3.03;;
67749;SDS011;54550;48.838;8.828;2023-06-10T04:06:14;6.20;;;3.23;;
67749;SDS011;54550;48.838;8.828;2023-06-10T04:08:41;4.97;;;3.30;;
67749;SDS011;54550;48.838;8.828;2023-06-10T04:11:06;4.10;;;2.93;;
67749;SDS011;54550;48.838;8.828;2023-06-10T04:13:32;4.00;;;2.80;;
67749;SDS011;54550;48.838;8.828;2023-06-10T04:15:57;5.17;;;3.13;;
67749;SDS011;54550;48.838;8.828;2023-06-10T04:18:23;4.07;;;3.13;;
67749;SDS011;54550;48.838;8.828;2023-06-10T04:20:48;5.53;;;3.20;;
67749;SDS011;54550;48.838;8.828;2023-06-10T04:23:14;4.50;;;3.33;;
67749;SDS011;54550;48.838;8.828;2023-06-10T04:25:40;3.23;;;2.67;;
67749;SDS011;54550;48.838;8.828;2023-06-10T04:28:05;3.43;;;2.93;;
67749;SDS011;54550;48.838;8.828;2023-06-10T04:30:31;3.53;;;2.37;;
67749;SDS011;54550;48.838;8.828;2023-06-10T04:32:56;4.80;;;2.03;;
67749;SDS011;54550;48.838;8.828;2023-06-10T04:35:22;3.20;;;2.90;;
67749;SDS011;54550;48.838;8.828;2023-06-10T04:37:48;3.07;;;2.73;;
67749;SDS011;54550;48.838;8.828;2023-06-10T04:40:13;5.10;;;2.70;;
67749;SDS011;54550;48.838;8.828;2023-06-10T04:42:40;3.57;;;2.80;;
67749;SDS011;54550;48.838;8.828;2023-06-10T04:45:06;3.73;;;2.87;;
67749;SDS011;54550;48.838;8.828;2023-06-10T04:47:32;2.73;;;2.50;;
67749;SDS011;54550;48.838;8.828;2023-06-10T04:49:58;4.40;;;3.13;;
67749;SDS011;54550;48.838;8.828;2023-06-10T04:52:25;2.37;;;2.03;;
67749;SDS011;54550;48.838;8.828;2023-06-10T04:54:50;2.70;;;2.43;;
67749;SDS011;54550;48.838;8.828;2023-06-10T04:57:16;3.20;;;2.63;;
67749;SDS011;54550;48.838;8.828;2023-06-10T04:59:41;3.93;;;2.47;;
67749;SDS011;54550;48.838;8.828;2023-06-10T05:02:07;6.17;;;3.23;;
67749;SDS011;54550;48.838;8.828;2023-06-10T05:04:32;2.60;;;2.40;;
67749;SDS011;54550;48.838;8.828;2023-06-10T05:06:58;3.67;;;2.70;;
67749;SDS011;54550;48.838;8.828;2023-06-10T05:09:24;4.07;;;2.97;;
67749;SDS011;54550;48.838;8.828;2023-06-10T05:11:50;5.63;;;2.70;;
67749;SDS011;54550;48.838;8.828;2023-06-10T05:14:18;3.00;;;2.40;;
67749;SDS011;54550;48.838;8.828;2023-06-10T05:16:44;3.00;;;2.27;;
67749;SDS011;54550;48.838;8.828;2023-06-10T05:19:09;3.90;;;2.97;;
67749;SDS011;54550;48.838;8.828;2023-06-10T05:21:35;3.00;;;2.70;;
67749;SDS011;54550;48.838;8.828;2023-06-10T05:24:00;3.40;;;2.53;;
67749;SDS011;54550;48.838;8.828;2023-06-10T05:26:27;3.10;;;2.40;;
67749;SDS011;54550;48.838;8.828;2023-06-10T05:31:19;4.73;;;2.53;;
67749;SDS011;54550;48.838;8.828;2023-06-10T05:33:44;3.03;;;2.40;;
67749;SDS011;54550;48.838;8.828;2023-06-10T05:36:10;3.53;;;2.60;;
67749;SDS011;54550;48.838;8.828;2023-06-10T05:38:36;3.73;;;2.57;;
67749;SDS011;54550;48.838;8.828;2023-06-10T05:41:01;3.67;;;3.13;;
67749;SDS011;54550;48.838;8.828;2023-06-10T05:43:27;3.80;;;2.87;;
67749;SDS011;54550;48.838;8.828;2023-06-10T05:45:52;4.53;;;2.10;;
67749;SDS011;54550;48.838;8.828;2023-06-10T05:48:18;3.30;;;3.00;;
67749;SDS011;54550;48.838;8.828;2023-06-10T05:50:45;4.33;;;2.80;;
67749;SDS011;54550;48.838;8.828;2023-06-10T05:53:13;5.90;;;3.00;;
67749;SDS011;54550;48.838;8.828;2023-06-10T05:55:43;4.50;;;2.73;;
67749;SDS011;54550;48.838;8.828;2023-06-10T05:58:10;4.70;;;3.17;;
67749;SDS011;54550;48.838;8.828;2023-06-10T06:00:37;2.50;;;2.10;;
67749;SDS011;54550;48.838;8.828;2023-06-10T06:03:06;2.63;;;2.43;;
67749;SDS011;54550;48.838;8.828;2023-06-10T06:05:33;3.40;;;3.10;;
67749;SDS011;54550;48.838;8.828;2023-06-10T06:08:06;3.10;;;2.60;;
67749;SDS011;54550;48.838;8.828;2023-06-10T06:10:34;2.80;;;2.43;;
67749;SDS011;54550;48.838;8.828;2023-06-10T06:13:00;2.63;;;2.20;;
67749;SDS011;54550;48.838;8.828;2023-06-10T06:15:26;2.63;;;2.40;;
67749;SDS011;54550;48.838;8.828;2023-06-10T06:17:52;2.60;;;2.40;;
67749;SDS011;54550;48.838;8.828;2023-06-10T06:56:50;2.60;;;1.90;;
67749;SDS011;54550;48.838;8.828;2023-06-10T07:13:50;3.77;;;2.50;;
67749;SDS011;54550;48.838;8.828;2023-06-10T07:21:06;2.50;;;1.97;;
67749;SDS011;54550;48.838;8.828;2023-06-10T07:23:32;3.73;;;2.37;;
67749;SDS011;54550;48.838;8.828;2023-06-10T07:25:57;2.80;;;2.43;;
67749;SDS011;54550;48.838;8.828;2023-06-10T07:30:48;2.63;;;2.20;;
67749;SDS011;54550;48.838;8.828;2023-06-10T08:41:24;2.57;;;2.37;;
67749;SDS011;54550;48.838;8.828;2023-06-10T08:53:36;2.47;;;1.97;;
67749;SDS011;54550;48.838;8.828;2023-06-10T08:58:34;4.20;;;2.40;;
67749;SDS011;54550;48.838;8.828;2023-06-10T09:01:06;2.43;;;2.20;;
67749;SDS011;54550;48.838;8.828;2023-06-10T09:03:33;3.20;;;2.27;;
67749;SDS011;54550;48.838;8.828;2023-06-10T10:14:27;2.63;;;2.43;;
67749;SDS011;54550;48.838;8.828;2023-06-10T10:16:55;2.63;;;2.40;;
67749;SDS011;54550;48.838;8.828;2023-06-10T10:21:53;3.40;;;2.50;;
67749;SDS011;54550;48.838;8.828;2023-06-10T10:24:20;3.10;;;2.20;;
67749;SDS011;54550;48.838;8.828;2023-06-10T11:23:44;3.03;;;2.70;;
67749;SDS011;54550;48.838;8.828;2023-06-10T12:42:33;4.00;;;1.80;;
67749;SDS011;54550;48.838;8.828;2023-06-10T12:45:00;3.40;;;2.50;;
67749;SDS011;54550;48.838;8.828;2023-06-10T12:47:33;1.90;;;1.70;;
67749;SDS011;54550;48.838;8.828;2023-06-10T13:04:46;2.23;;;2.03;;
67749;SDS011;54550;48.838;8.828;2023-06-10T13:07:12;4.80;;;1.93;;
67749;SDS011;54550;48.838;8.828;2023-06-10T14:07:55;3.30;;;1.70;;
67749;SDS011;54550;48.838;8.828;2023-06-10T14:32:11;2.83;;;1.70;;
67749;SDS011;54550;48.838;8.828;2023-06-10T14:34:36;2.90;;;2.00;;
67749;SDS011;54550;48.838;8.828;2023-06-10T14:37:03;1.83;;;1.50;;
67749;SDS011;54550;48.838;8.828;2023-06-10T14:39:32;1.57;;;1.40;;
67749;SDS011;54550;48.838;8.828;2023-06-10T14:41:57;2.70;;;2.17;;
67749;SDS011;54550;48.838;8.828;2023-06-10T19:13:50;4.10;;;3.27;;
67749;SDS011;54550;48.838;8.828;2023-06-10T20:48:28;4.47;;;3.77;;
67749;SDS011;54550;48.838;8.828;2023-06-10T20:50:54;3.33;;;3.00;;
67749;SDS011;54550;48.838;8.828;2023-06-10T20:53:19;3.90;;;3.20;;
67749;SDS011;54550;48.838;8.828;2023-06-10T20:55:45;4.77;;;3.93;;
67749;SDS011;54550;48.838;8.828;2023-06-10T20:58:10;4.87;;;4.40;;
67749;SDS011;54550;48.838;8.828;2023-06-10T21:00:36;4.83;;;3.53;;
67749;SDS011;54550;48.838;8.828;2023-06-10T21:03:01;3.30;;;3.00;;
67749;SDS011;54550;48.838;8.828;2023-06-10T21:05:27;4.40;;;4.00;;
67749;SDS011;54550;48.838;8.828;2023-06-10T21:07:52;3.90;;;3.30;;
67749;SDS011;54550;48.838;8.828;2023-06-10T21:10:18;4.17;;;3.30;;
67749;SDS011;54550;48.838;8.828;2023-06-10T21:12:44;3.87;;;3.30;;
67749;SDS011;54550;48.838;8.828;2023-06-10T21:15:10;5.63;;;3.50;;
67749;SDS011;54550;48.838;8.828;2023-06-10T21:17:35;3.87;;;3.47;;
67749;SDS011;54550;48.838;8.828;2023-06-10T21:20:01;3.87;;;3.43;;
67749;SDS011;54550;48.838;8.828;2023-06-10T21:22:27;4.30;;;3.43;;
67749;SDS011;54550;48.838;8.828;2023-06-10T21:24:53;3.93;;;3.40;;
67749;SDS011;54550;48.838;8.828;2023-06-10T21:27:18;4.97;;;3.63;;
67749;SDS011;54550;48.838;8.828;2023-06-10T21:29:45;4.17;;;3.77;;
67749;SDS011;54550;48.838;8.828;2023-06-10T21:32:10;5.90;;;3.60;;
67749;SDS011;54550;48.838;8.828;2023-06-10T21:34:36;4.57;;;3.40;;
67749;SDS011;54550;48.838;8.828;2023-06-10T21:37:02;3.97;;;3.57;;
67749;SDS011;54550;48.838;8.828;2023-06-10T21:49:09;7.07;;;3.80;;
67749;SDS011;54550;48.838;8.828;2023-06-10T21:51:35;5.20;;;3.57;;
67749;SDS011;54550;48.838;8.828;2023-06-10T21:54:00;6.80;;;3.30;;
67749;SDS011;54550;48.838;8.828;2023-06-10T21:56:26;12.00;;;3.10;;
67749;SDS011;54550;48.838;8.828;2023-06-10T21:58:56;5.30;;;4.13;;
67749;SDS011;54550;48.838;8.828;2023-06-10T22:01:22;6.23;;;4.57;;
67749;SDS011;54550;48.838;8.828;2023-06-10T22:03:48;5.20;;;3.40;;
67749;SDS011;54550;48.838;8.828;2023-06-10T22:06:14;9.00;;;4.00;;
67749;SDS011;54550;48.838;8.828;2023-06-10T22:08:39;3.23;;;2.93;;
67749;SDS011;54550;48.838;8.828;2023-06-10T22:11:05;4.43;;;4.03;;
67749;SDS011;54550;48.838;8.828;2023-06-10T22:13:31;5.60;;;3.90;;
67749;SDS011;54550;48.838;8.828;2023-06-10T22:15:56;5.10;;;4.60;;
67749;SDS011;54550;48.838;8.828;2023-06-10T22:18:22;5.03;;;4.37;;
67749;SDS011;54550;48.838;8.828;2023-06-10T22:20:47;7.17;;;4.03;;
67749;SDS011;54550;48.838;8.828;2023-06-10T22:23:19;6.20;;;4.33;;
67749;SDS011;54550;48.838;8.828;2023-06-10T22:25:45;5.40;;;4.00;;
67749;SDS011;54550;48.838;8.828;2023-06-10T22:28:11;4.57;;;3.90;;
67749;SDS011;54550;48.838;8.828;2023-06-10T22:30:37;6.47;;;4.73;;
67749;SDS011;54550;48.838;8.828;2023-06-10T22:33:02;6.70;;;4.20;;
67749;SDS011;54550;48.838;8.828;2023-06-10T22:35:28;5.70;;;4.10;;
67749;SDS011;54550;48.838;8.828;2023-06-10T22:37:53;4.40;;;4.00;;
67749;SDS011;54550;48.838;8.828;2023-06-10T22:40:19;4.37;;;3.63;;
67749;SDS011;54550;48.838;8.828;2023-06-10T22:42:45;5.03;;;3.80;;
67749;SDS011;54550;48.838;8.828;2023-06-10T22:45:10;4.80;;;4.40;;
67749;SDS011;54550;48.838;8.828;2023-06-10T22:47:36;4.83;;;3.87;;
67749;SDS011;54550;48.838;8.828;2023-06-10T23:24:21;6.53;;;4.90;;
67749;SDS011;54550;48.838;8.828;2023-06-10T23:26:51;4.73;;;4.20;;
67749;SDS011;54550;48.838;8.828;2023-06-10T23:29:17;4.63;;;4.17;;
67749;SDS011;54550;48.838;8.828;2023-06-10T23:48:47;3.73;;;3.20;;
67749;SDS011;54550;48.838;8.828;2023-06-10T23:51:13;6.33;;;4.13;;
67749;SDS011;54550;48.838;8.828;2023-06-10T23:53:38;5.30;;;4.03;;
67749;SDS011;54550;48.838;8.828;2023-06-10T23:56:04;4.80;;;4.30;;
67749;SDS011;54550;48.838;8.828;2023-06-10T23:58:30;7.43;;;3.70;;
